createdAt,value
2018-07-28T00:00:18.491Z,1004.8
2018-07-28T00:01:20.537Z,1004.8
2018-07-28T00:02:22.590Z,1004.9
2018-07-28T00:03:24.639Z,1004.8
2018-07-28T00:04:26.678Z,1004.8
2018-07-28T00:05:28.733Z,1004.9
2018-07-28T00:06:31.462Z,1004.9
2018-07-28T00:07:33.808Z,1004.8
2018-07-28T00:08:35.881Z,1004.8
2018-07-28T00:09:37.912Z,1004.8
2018-07-28T00:10:40.245Z,1004.8
2018-07-28T00:11:42.581Z,1004.8
2018-07-28T00:12:44.624Z,1004.8
2018-07-28T00:13:46.669Z,1004.8
2018-07-28T00:14:49.008Z,1004.8
2018-07-28T00:15:51.046Z,1004.8
2018-07-28T00:16:53.099Z,1004.8
2018-07-28T00:17:55.152Z,1004.8
2018-07-28T00:18:57.196Z,1004.8
2018-07-28T00:19:59.625Z,1004.8
2018-07-28T00:21:01.678Z,1004.8
2018-07-28T00:22:04.504Z,1004.8
2018-07-28T00:23:06.547Z,1004.8
2018-07-28T00:24:09.273Z,1004.8
2018-07-28T00:25:11.591Z,1004.8
2018-07-28T00:26:13.638Z,1004.8
2018-07-28T00:27:15.680Z,1004.7
2018-07-28T00:28:17.731Z,1004.7
2018-07-28T00:29:19.775Z,1004.8
2018-07-28T00:30:22.209Z,1004.7
2018-07-28T00:31:24.550Z,1004.8
2018-07-28T00:32:26.883Z,1004.7
2018-07-28T00:33:28.941Z,1004.7
2018-07-28T00:34:31.271Z,1004.7
2018-07-28T00:35:33.309Z,1004.7
2018-07-28T00:36:35.354Z,1004.7
2018-07-28T00:37:37.404Z,1004.6
2018-07-28T00:38:39.723Z,1004.7
2018-07-28T00:39:41.776Z,1004.7
2018-07-28T00:40:43.817Z,1004.6
2018-07-28T00:41:46.236Z,1004.6
2018-07-28T00:42:48.282Z,1004.6
2018-07-28T00:43:50.331Z,1004.6
2018-07-28T00:44:52.669Z,1004.6
2018-07-28T00:45:54.719Z,1004.6
2018-07-28T00:46:57.057Z,1004.6
2018-07-28T00:47:59.101Z,1004.6
2018-07-28T00:49:01.545Z,1004.6
2018-07-28T00:50:03.581Z,1004.6
2018-07-28T00:51:05.627Z,1004.6
2018-07-28T00:52:07.667Z,1004.6
2018-07-28T00:53:09.718Z,1004.6
2018-07-28T00:54:11.787Z,1004.6
2018-07-28T00:55:14.092Z,1004.6
2018-07-28T00:56:16.145Z,1004.6
2018-07-28T00:57:18.191Z,1004.5
2018-07-28T00:58:20.221Z,1004.5
2018-07-28T00:59:22.555Z,1004.5
2018-07-28T01:00:24.606Z,1004.4
2018-07-28T01:01:26.657Z,1004.5
2018-07-28T01:02:28.700Z,1004.4
2018-07-28T01:03:30.750Z,1004.4
2018-07-28T01:04:32.802Z,1004.4
2018-07-28T01:05:34.839Z,1004.4
2018-07-28T01:06:36.897Z,1004.3
2018-07-28T01:07:38.940Z,1004.3
2018-07-28T01:08:40.982Z,1004.4
2018-07-28T01:09:43.310Z,1004.4
2018-07-28T01:10:45.649Z,1004.4
2018-07-28T01:11:48.255Z,1004.4
2018-07-28T01:12:50.307Z,1004.3
2018-07-28T01:13:52.351Z,1004.3
2018-07-28T01:14:54.387Z,1004.3
2018-07-28T01:15:56.716Z,1004.3
2018-07-28T01:16:58.769Z,1004.3
2018-07-28T01:18:01.103Z,1004.3
2018-07-28T01:19:03.151Z,1004.3
2018-07-28T01:20:05.204Z,1004.3
2018-07-28T01:21:07.636Z,1004.2
2018-07-28T01:22:09.688Z,1004.2
2018-07-28T01:23:11.725Z,1004.2
2018-07-28T01:24:14.051Z,1004.2
2018-07-28T01:25:16.386Z,1004.1
2018-07-28T01:26:18.435Z,1004.1
2018-07-28T01:27:20.859Z,1004.1
2018-07-28T01:28:23.290Z,1004.1
2018-07-28T01:29:25.626Z,1004.1
2018-07-28T01:30:27.659Z,1004
2018-07-28T01:31:29.712Z,1004
2018-07-28T01:32:31.759Z,1004
2018-07-28T01:33:33.807Z,1004
2018-07-28T01:34:35.843Z,1004
2018-07-28T01:35:38.194Z,1004
2018-07-28T01:36:40.630Z,1004
2018-07-28T01:37:42.680Z,1003.9
2018-07-28T01:38:45.388Z,1003.9
2018-07-28T01:39:47.446Z,1003.9
2018-07-28T01:40:49.492Z,1003.9
2018-07-28T01:41:51.917Z,1003.9
2018-07-28T01:42:53.960Z,1003.9
2018-07-28T01:43:56.015Z,1003.9
2018-07-28T01:44:58.053Z,1003.9
2018-07-28T01:46:00.103Z,1003.9
2018-07-28T01:47:02.541Z,1003.8
2018-07-28T01:48:04.571Z,1003.8
2018-07-28T01:49:07.057Z,1003.8
2018-07-28T01:50:09.107Z,1003.8
2018-07-28T01:51:11.147Z,1003.8
2018-07-28T01:52:13.197Z,1003.8
2018-07-28T01:53:15.247Z,1003.8
2018-07-28T01:54:17.287Z,1003.8
2018-07-28T01:55:19.341Z,1003.8
2018-07-28T01:56:21.381Z,1003.8
2018-07-28T01:57:23.426Z,1003.8
2018-07-28T01:58:25.463Z,1003.7
2018-07-28T01:59:27.516Z,1003.7
2018-07-28T02:00:29.847Z,1003.8
2018-07-28T02:01:31.893Z,1003.8
2018-07-28T02:02:33.944Z,1003.7
2018-07-28T02:03:35.979Z,1003.7
2018-07-28T02:04:38.031Z,1003.7
2018-07-28T02:05:40.075Z,1003.7
2018-07-28T02:06:42.123Z,1003.7
2018-07-28T02:07:44.160Z,1003.6
2018-07-28T02:08:46.209Z,1003.6
2018-07-28T02:09:48.245Z,1003.6
2018-07-28T02:10:50.285Z,1003.6
2018-07-28T02:11:52.339Z,1003.6
2018-07-28T02:12:54.662Z,1003.6
2018-07-28T02:13:56.701Z,1003.6
2018-07-28T02:14:58.741Z,1003.6
2018-07-28T02:16:01.088Z,1003.6
2018-07-28T02:17:03.138Z,1003.6
2018-07-28T02:18:05.177Z,1003.6
2018-07-28T02:19:07.225Z,1003.6
2018-07-28T02:20:09.269Z,1003.6
2018-07-28T02:21:11.309Z,1003.7
2018-07-28T02:22:13.354Z,1003.6
2018-07-28T02:23:15.403Z,1003.7
2018-07-28T02:24:17.442Z,1003.6
2018-07-28T02:25:19.797Z,1003.6
2018-07-28T02:26:21.871Z,1003.6
2018-07-28T02:27:23.908Z,1003.6
2018-07-28T02:28:26.355Z,1003.6
2018-07-28T02:29:28.395Z,1003.5
2018-07-28T02:30:30.440Z,1003.6
2018-07-28T02:31:32.782Z,1003.6
2018-07-28T02:32:34.830Z,1003.6
2018-07-28T02:33:37.261Z,1003.5
2018-07-28T02:34:39.891Z,1003.5
2018-07-28T02:35:41.947Z,1003.4
2018-07-28T02:36:44.567Z,1003.5
2018-07-28T02:37:46.930Z,1003.4
2018-07-28T02:38:49.364Z,1003.4
2018-07-28T02:39:51.415Z,1003.4
2018-07-28T02:40:53.847Z,1003.4
2018-07-28T02:41:56.187Z,1003.4
2018-07-28T02:42:58.226Z,1003.4
2018-07-28T02:44:00.266Z,1003.4
2018-07-28T02:45:02.322Z,1003.3
2018-07-28T02:46:04.638Z,1003.4
2018-07-28T02:47:07.859Z,1003.3
2018-07-28T02:48:10.587Z,1003.3
2018-07-28T02:49:12.929Z,1003.3
2018-07-28T02:50:15.253Z,1003.3
2018-07-28T02:51:18.259Z,1003.3
2018-07-28T02:52:20.297Z,1003.3
2018-07-28T02:53:22.651Z,1003.3
2018-07-28T02:54:24.996Z,1003.3
2018-07-28T02:55:27.040Z,1003.3
2018-07-28T02:56:29.078Z,1003.3
2018-07-28T02:57:31.521Z,1003.3
2018-07-28T02:58:34.235Z,1003.3
2018-07-28T02:59:36.274Z,1003.3
2018-07-28T03:00:39.209Z,1003.2
2018-07-28T03:01:41.261Z,1003.3
2018-07-28T03:02:43.289Z,1003.2
2018-07-28T03:03:45.334Z,1003.2
2018-07-28T03:04:47.666Z,1003.2
2018-07-28T03:05:50.280Z,1003.2
2018-07-28T03:06:52.329Z,1003.2
2018-07-28T03:07:54.959Z,1003.2
2018-07-28T03:08:57.391Z,1003.2
2018-07-28T03:10:00.221Z,1003.2
2018-07-28T03:11:02.255Z,1003.3
2018-07-28T03:12:04.299Z,1003.3
2018-07-28T03:13:06.636Z,1003.3
2018-07-28T03:14:09.074Z,1003.3
2018-07-28T03:15:11.686Z,1003.2
2018-07-28T03:16:13.735Z,1003.2
2018-07-28T03:17:16.174Z,1003.2
2018-07-28T03:18:18.775Z,1003.2
2018-07-28T03:19:20.830Z,1003.2
2018-07-28T03:20:22.875Z,1003.1
2018-07-28T03:21:24.921Z,1003.1
2018-07-28T03:22:27.545Z,1003.1
2018-07-28T03:23:30.277Z,1003.1
2018-07-28T03:24:32.607Z,1003
2018-07-28T03:25:34.668Z,1003.1
2018-07-28T03:26:37.014Z,1003.1
2018-07-28T03:27:39.321Z,1003.1
2018-07-28T03:28:41.366Z,1003.1
2018-07-28T03:29:43.690Z,1003.1
2018-07-28T03:30:46.128Z,1003.1
2018-07-28T03:31:48.167Z,1003.1
2018-07-28T03:32:50.489Z,1003.1
2018-07-28T03:33:52.538Z,1003.1
2018-07-28T03:34:54.570Z,1003
2018-07-28T03:35:56.620Z,1003
2018-07-28T03:36:58.666Z,1003
2018-07-28T03:38:00.709Z,1003
2018-07-28T03:39:02.753Z,1003
2018-07-28T03:40:05.102Z,1002.9
2018-07-28T03:41:07.147Z,1002.9
2018-07-28T03:42:09.470Z,1002.9
2018-07-28T03:43:11.525Z,1002.9
2018-07-28T03:44:13.559Z,1002.9
2018-07-28T03:45:15.605Z,1002.9
2018-07-28T03:46:17.646Z,1002.9
2018-07-28T03:47:19.988Z,1002.9
2018-07-28T03:48:22.031Z,1002.9
2018-07-28T03:49:24.152Z,1002.8
2018-07-28T03:50:26.130Z,1002.9
2018-07-28T03:51:28.160Z,1002.8
2018-07-28T03:52:30.213Z,1002.9
2018-07-28T03:53:32.258Z,1002.8
2018-07-28T03:54:34.693Z,1002.9
2018-07-28T03:55:36.738Z,1002.8
2018-07-28T03:56:38.873Z,1002.9
2018-07-28T03:57:41.204Z,1002.9
2018-07-28T03:58:43.257Z,1002.9
2018-07-28T03:59:45.300Z,1002.9
2018-07-28T04:00:47.614Z,1002.9
2018-07-28T04:01:49.658Z,1002.9
2018-07-28T04:02:51.705Z,1002.9
2018-07-28T04:03:53.747Z,1003
2018-07-28T04:04:55.797Z,1002.9
2018-07-28T04:05:57.845Z,1002.9
2018-07-28T04:07:00.276Z,1002.9
2018-07-28T04:08:02.329Z,1002.9
2018-07-28T04:09:04.373Z,1002.9
2018-07-28T04:10:06.418Z,1003
2018-07-28T04:11:08.767Z,1002.9
2018-07-28T04:12:10.817Z,1002.9
2018-07-28T04:13:12.858Z,1002.9
2018-07-28T04:14:14.939Z,1002.9
2018-07-28T04:15:17.271Z,1002.9
2018-07-28T04:16:19.307Z,1002.8
2018-07-28T04:17:21.656Z,1002.8
2018-07-28T04:18:23.698Z,1002.8
2018-07-28T04:19:25.746Z,1002.8
2018-07-28T04:20:27.783Z,1002.8
2018-07-28T04:21:30.119Z,1002.8
2018-07-28T04:22:32.159Z,1002.8
2018-07-28T04:23:34.199Z,1002.8
2018-07-28T04:24:36.251Z,1002.8
2018-07-28T04:25:38.281Z,1002.8
2018-07-28T04:26:40.332Z,1002.8
2018-07-28T04:27:42.380Z,1002.8
2018-07-28T04:28:44.438Z,1002.8
2018-07-28T04:29:46.751Z,1002.8
2018-07-28T04:30:48.800Z,1002.8
2018-07-28T04:31:51.400Z,1002.7
2018-07-28T04:32:53.450Z,1002.7
2018-07-28T04:33:56.360Z,1002.7
2018-07-28T04:34:58.684Z,1002.7
2018-07-28T04:36:00.722Z,1002.7
2018-07-28T04:37:03.164Z,1002.8
2018-07-28T04:38:05.158Z,1002.8
2018-07-28T04:39:07.196Z,1002.7
2018-07-28T04:40:09.555Z,1002.7
2018-07-28T04:41:11.598Z,1002.7
2018-07-28T04:42:13.648Z,1002.7
2018-07-28T04:43:15.696Z,1002.7
2018-07-28T04:44:17.740Z,1002.7
2018-07-28T04:45:19.782Z,1002.7
2018-07-28T04:46:21.821Z,1002.7
2018-07-28T04:47:23.868Z,1002.7
2018-07-28T04:48:26.205Z,1002.7
2018-07-28T04:49:28.243Z,1002.7
2018-07-28T04:50:30.305Z,1002.7
2018-07-28T04:51:32.635Z,1002.7
2018-07-28T04:52:34.691Z,1002.7
2018-07-28T04:53:37.034Z,1002.7
2018-07-28T04:54:39.447Z,1002.7
2018-07-28T04:55:41.488Z,1002.7
2018-07-28T04:56:43.527Z,1002.7
2018-07-28T04:57:45.580Z,1002.7
2018-07-28T04:58:47.612Z,1002.6
2018-07-28T04:59:49.658Z,1002.6
2018-07-28T05:00:51.708Z,1002.6
2018-07-28T05:01:53.753Z,1002.6
2018-07-28T05:02:55.786Z,1002.7
2018-07-28T05:03:58.126Z,1002.6
2018-07-28T05:05:00.165Z,1002.6
2018-07-28T05:06:02.216Z,1002.7
2018-07-28T05:07:04.552Z,1002.6
2018-07-28T05:08:06.885Z,1002.6
2018-07-28T05:09:08.925Z,1002.6
2018-07-28T05:10:10.973Z,1002.6
2018-07-28T05:11:13.015Z,1002.6
2018-07-28T05:12:15.055Z,1002.6
2018-07-28T05:13:17.104Z,1002.6
2018-07-28T05:14:19.139Z,1002.5
2018-07-28T05:15:21.189Z,1002.5
2018-07-28T05:16:23.232Z,1002.5
2018-07-28T05:17:25.282Z,1002.5
2018-07-28T05:18:27.609Z,1002.5
2018-07-28T05:19:29.657Z,1002.5
2018-07-28T05:20:31.702Z,1002.5
2018-07-28T05:21:33.741Z,1002.6
2018-07-28T05:22:35.793Z,1002.5
2018-07-28T05:23:38.245Z,1002.5
2018-07-28T05:24:40.250Z,1002.5
2018-07-28T05:25:42.287Z,1002.5
2018-07-28T05:26:44.339Z,1002.6
2018-07-28T05:27:46.376Z,1002.5
2018-07-28T05:28:48.428Z,1002.5
2018-07-28T05:29:50.911Z,1002.6
2018-07-28T05:30:52.943Z,1002.6
2018-07-28T05:31:55.000Z,1002.6
2018-07-28T05:32:57.325Z,1002.6
2018-07-28T05:33:59.657Z,1002.7
2018-07-28T05:35:01.707Z,1002.7
2018-07-28T05:36:04.321Z,1002.6
2018-07-28T05:37:06.396Z,1002.6
2018-07-28T05:38:08.411Z,1002.6
2018-07-28T05:39:10.752Z,1002.6
2018-07-28T05:40:12.791Z,1002.6
2018-07-28T05:41:15.116Z,1002.6
2018-07-28T05:42:17.164Z,1002.6
2018-07-28T05:43:19.207Z,1002.5
2018-07-28T05:44:21.257Z,1002.5
2018-07-28T05:45:23.312Z,1002.5
2018-07-28T05:46:26.067Z,1002.5
2018-07-28T05:47:28.121Z,1002.5
2018-07-28T05:48:30.160Z,1002.5
2018-07-28T05:49:32.205Z,1002.5
2018-07-28T05:50:34.291Z,1002.5
2018-07-28T05:51:36.293Z,1002.5
2018-07-28T05:52:38.724Z,1002.5
2018-07-28T05:53:40.762Z,1002.5
2018-07-28T05:54:42.814Z,1002.5
2018-07-28T05:55:44.849Z,1002.4
2018-07-28T05:56:46.903Z,1002.4
2018-07-28T05:57:48.957Z,1002.4
2018-07-28T05:58:51.005Z,1002.4
2018-07-28T05:59:53.041Z,1002.3
2018-07-28T06:00:55.383Z,1002.4
2018-07-28T06:01:57.435Z,1002.4
2018-07-28T06:02:59.486Z,1002.3
2018-07-28T06:04:01.521Z,1002.4
2018-07-28T06:05:04.065Z,1002.3
2018-07-28T06:06:06.697Z,1002.4
2018-07-28T06:07:08.736Z,1002.4
2018-07-28T06:08:10.781Z,1002.3
2018-07-28T06:09:12.835Z,1002.3
2018-07-28T06:10:15.160Z,1002.3
2018-07-28T06:11:17.494Z,1002.4
2018-07-28T06:12:19.539Z,1002.3
2018-07-28T06:13:21.574Z,1002.3
2018-07-28T06:14:23.621Z,1002.3
2018-07-28T06:15:26.057Z,1002.3
2018-07-28T06:16:28.094Z,1002.3
2018-07-28T06:17:30.142Z,1002.3
2018-07-28T06:18:32.194Z,1002.3
2018-07-28T06:19:34.234Z,1002.3
2018-07-28T06:20:36.289Z,1002.3
2018-07-28T06:21:38.623Z,1002.3
2018-07-28T06:22:40.670Z,1002.3
2018-07-28T06:23:42.717Z,1002.3
2018-07-28T06:24:45.055Z,1002.3
2018-07-28T06:25:47.381Z,1002.2
2018-07-28T06:26:49.427Z,1002.2
2018-07-28T06:27:51.870Z,1002.2
2018-07-28T06:28:54.597Z,1002.2
2018-07-28T06:29:56.653Z,1002.2
2018-07-28T06:30:58.705Z,1002.2
2018-07-28T06:32:01.410Z,1002.2
2018-07-28T06:33:03.759Z,1002.2
2018-07-28T06:34:05.810Z,1002.2
2018-07-28T06:35:07.858Z,1002.3
2018-07-28T06:36:09.903Z,1002.2
2018-07-28T06:37:12.249Z,1002.3
2018-07-28T06:38:14.290Z,1002.2
2018-07-28T06:39:16.335Z,1002.2
2018-07-28T06:40:18.374Z,1002.2
2018-07-28T06:41:20.422Z,1002.2
2018-07-28T06:42:22.757Z,1002.2
2018-07-28T06:43:24.798Z,1002.2
2018-07-28T06:44:26.850Z,1002.2
2018-07-28T06:45:28.896Z,1002.3
2018-07-28T06:46:30.929Z,1002.3
2018-07-28T06:47:33.648Z,1002.2
2018-07-28T06:48:36.089Z,1002.2
2018-07-28T06:49:38.133Z,1002.2
2018-07-28T06:50:40.186Z,1002.2
2018-07-28T06:51:42.239Z,1002.2
2018-07-28T06:52:44.299Z,1002.2
2018-07-28T06:53:47.354Z,1002.2
2018-07-28T06:54:50.760Z,1002.2
2018-07-28T06:55:52.815Z,1002.1
2018-07-28T06:56:54.858Z,1002.1
2018-07-28T06:57:56.971Z,1002.1
2018-07-28T06:58:59.091Z,1002.1
2018-07-28T07:00:01.284Z,1002.1
2018-07-28T07:01:03.447Z,1002.1
2018-07-28T07:02:06.707Z,1002.1
2018-07-28T07:03:08.990Z,1002.1
2018-07-28T07:04:11.037Z,1002.1
2018-07-28T07:05:13.093Z,1002
2018-07-28T07:06:15.138Z,1002.1
2018-07-28T07:07:17.195Z,1002.1
2018-07-28T07:08:19.626Z,1002.1
2018-07-28T07:09:21.668Z,1002.2
2018-07-28T07:10:23.729Z,1002.2
2018-07-28T07:11:25.769Z,1002.2
2018-07-28T07:12:27.820Z,1002.2
2018-07-28T07:13:30.165Z,1002.1
2018-07-28T07:14:32.212Z,1002.1
2018-07-28T07:15:34.644Z,1002.2
2018-07-28T07:16:36.974Z,1002.2
2018-07-28T07:17:39.029Z,1002.1
2018-07-28T07:18:41.079Z,1002.1
2018-07-28T07:19:43.114Z,1002.1
2018-07-28T07:20:45.554Z,1002.1
2018-07-28T07:21:47.605Z,1002.1
2018-07-28T07:22:49.939Z,1002.1
2018-07-28T07:23:52.282Z,1002.1
2018-07-28T07:24:54.336Z,1002.1
2018-07-28T07:25:56.684Z,1002.1
2018-07-28T07:26:58.744Z,1002.1
2018-07-28T07:28:00.793Z,1002.1
2018-07-28T07:29:02.850Z,1002.1
2018-07-28T07:30:04.885Z,1002.1
2018-07-28T07:31:06.942Z,1002.1
2018-07-28T07:32:08.989Z,1002.1
2018-07-28T07:33:11.039Z,1002.1
2018-07-28T07:34:13.092Z,1002.1
2018-07-28T07:35:15.531Z,1002.1
2018-07-28T07:36:17.661Z,1002.1
2018-07-28T07:37:19.634Z,1002.2
2018-07-28T07:38:21.688Z,1002.1
2018-07-28T07:39:23.736Z,1002.1
2018-07-28T07:40:25.786Z,1002
2018-07-28T07:41:27.835Z,1002
2018-07-28T07:42:29.880Z,1002
2018-07-28T07:43:31.940Z,1002
2018-07-28T07:44:33.987Z,1002.1
2018-07-28T07:45:36.036Z,1002
2018-07-28T07:46:38.097Z,1002
2018-07-28T07:47:40.217Z,1002
2018-07-28T07:48:42.192Z,1002
2018-07-28T07:49:44.253Z,1002
2018-07-28T07:50:46.294Z,1001.9
2018-07-28T07:51:48.351Z,1001.9
2018-07-28T07:52:50.410Z,1001.9
2018-07-28T07:53:52.822Z,1001.9
2018-07-28T07:54:55.162Z,1001.9
2018-07-28T07:55:57.217Z,1001.9
2018-07-28T07:56:59.649Z,1001.9
2018-07-28T07:58:01.688Z,1001.8
2018-07-28T07:59:04.037Z,1001.8
2018-07-28T08:00:06.359Z,1001.8
2018-07-28T08:01:08.795Z,1001.8
2018-07-28T08:02:10.850Z,1001.8
2018-07-28T08:03:12.906Z,1001.7
2018-07-28T08:04:15.337Z,1001.8
2018-07-28T08:05:17.396Z,1001.8
2018-07-28T08:06:19.866Z,1001.8
2018-07-28T08:07:22.248Z,1001.8
2018-07-28T08:08:24.310Z,1001.8
2018-07-28T08:09:26.350Z,1001.8
2018-07-28T08:10:28.689Z,1001.7
2018-07-28T08:11:30.735Z,1001.8
2018-07-28T08:12:33.100Z,1001.8
2018-07-28T08:13:35.448Z,1001.8
2018-07-28T08:14:37.503Z,1001.8
2018-07-28T08:15:39.561Z,1001.8
2018-07-28T08:16:41.599Z,1001.8
2018-07-28T08:17:43.657Z,1001.8
2018-07-28T08:18:45.712Z,1001.8
2018-07-28T08:19:47.758Z,1001.8
2018-07-28T08:20:49.827Z,1001.8
2018-07-28T08:21:52.560Z,1001.8
2018-07-28T08:22:54.608Z,1001.7
2018-07-28T08:23:56.671Z,1001.8
2018-07-28T08:24:59.000Z,1001.7
2018-07-28T08:26:01.044Z,1001.7
2018-07-28T08:27:03.095Z,1001.7
2018-07-28T08:28:05.149Z,1001.7
2018-07-28T08:29:07.197Z,1001.7
2018-07-28T08:30:09.248Z,1001.7
2018-07-28T08:31:11.305Z,1001.7
2018-07-28T08:32:13.360Z,1001.7
2018-07-28T08:33:15.407Z,1001.6
2018-07-28T08:34:17.803Z,1001.7
2018-07-28T08:35:20.242Z,1001.7
2018-07-28T08:36:22.299Z,1001.6
2018-07-28T08:37:24.347Z,1001.7
2018-07-28T08:38:26.404Z,1001.7
2018-07-28T08:39:28.750Z,1001.7
2018-07-28T08:40:30.794Z,1001.7
2018-07-28T08:41:32.856Z,1001.7
2018-07-28T08:42:35.282Z,1001.7
2018-07-28T08:43:37.331Z,1001.7
2018-07-28T08:44:39.695Z,1001.6
2018-07-28T08:45:41.731Z,1001.7
2018-07-28T08:46:44.085Z,1001.7
2018-07-28T08:47:46.138Z,1001.7
2018-07-28T08:48:48.227Z,1001.6
2018-07-28T08:49:50.235Z,1001.6
2018-07-28T08:50:52.299Z,1001.6
2018-07-28T08:51:54.348Z,1001.6
2018-07-28T08:52:56.393Z,1001.5
2018-07-28T08:53:58.445Z,1001.5
2018-07-28T08:55:00.794Z,1001.6
2018-07-28T08:56:02.851Z,1001.5
2018-07-28T08:57:04.907Z,1001.5
2018-07-28T08:58:06.962Z,1001.5
2018-07-28T08:59:09.085Z,1001.5
2018-07-28T09:00:11.534Z,1001.5
2018-07-28T09:01:14.084Z,1001.5
2018-07-28T09:02:16.131Z,1001.5
2018-07-28T09:03:18.192Z,1001.5
2018-07-28T09:04:20.254Z,1001.5
2018-07-28T09:05:22.300Z,1001.5
2018-07-28T09:06:24.657Z,1001.4
2018-07-28T09:07:26.704Z,1001.5
2018-07-28T09:08:28.757Z,1001.4
2018-07-28T09:09:30.807Z,1001.6
2018-07-28T09:10:33.261Z,1001.5
2018-07-28T09:11:35.627Z,1001.5
2018-07-28T09:12:37.678Z,1001.4
2018-07-28T09:13:39.750Z,1001.4
2018-07-28T09:14:41.794Z,1001.5
2018-07-28T09:15:44.118Z,1001.5
2018-07-28T09:16:46.171Z,1001.4
2018-07-28T09:17:48.271Z,1001.4
2018-07-28T09:18:50.282Z,1001.4
2018-07-28T09:19:52.617Z,1001.4
2018-07-28T09:20:54.984Z,1001.3
2018-07-28T09:21:57.348Z,1001.4
2018-07-28T09:22:59.676Z,1001.4
2018-07-28T09:24:01.744Z,1001.4
2018-07-28T09:25:04.105Z,1001.4
2018-07-28T09:26:06.153Z,1001.4
2018-07-28T09:27:08.592Z,1001.3
2018-07-28T09:28:10.650Z,1001.3
2018-07-28T09:29:12.700Z,1001.3
2018-07-28T09:30:14.762Z,1001.3
2018-07-28T09:31:16.815Z,1001.3
2018-07-28T09:32:19.152Z,1001.3
2018-07-28T09:33:21.206Z,1001.3
2018-07-28T09:34:23.560Z,1001.2
2018-07-28T09:35:25.892Z,1001.3
2018-07-28T09:36:27.953Z,1001.2
2018-07-28T09:37:30.014Z,1001.2
2018-07-28T09:38:32.365Z,1001.2
2018-07-28T09:39:34.429Z,1001.1
2018-07-28T09:40:36.478Z,1001.2
2018-07-28T09:41:38.915Z,1001.2
2018-07-28T09:42:40.970Z,1001
2018-07-28T09:43:43.028Z,1001
2018-07-28T09:44:45.076Z,1001
2018-07-28T09:45:47.134Z,1001
2018-07-28T09:46:49.547Z,1001
2018-07-28T09:47:52.253Z,1001
2018-07-28T09:48:54.311Z,1001
2018-07-28T09:49:56.365Z,1001
2018-07-28T09:50:58.408Z,1001
2018-07-28T09:52:00.469Z,1001
2018-07-28T09:53:02.829Z,1001
2018-07-28T09:54:04.893Z,1001
2018-07-28T09:55:06.958Z,1001
2018-07-28T09:56:09.054Z,1001
2018-07-28T09:57:11.444Z,1001.1
2018-07-28T09:58:13.499Z,1001
2018-07-28T09:59:15.550Z,1001.1
2018-07-28T10:00:17.608Z,1001
2018-07-28T10:01:20.060Z,1001
2018-07-28T10:02:22.111Z,1001.1
2018-07-28T10:03:24.174Z,1001
2018-07-28T10:04:26.233Z,1001
2018-07-28T10:05:28.321Z,1001
2018-07-28T10:06:30.337Z,1001
2018-07-28T10:07:32.683Z,1000.9
2018-07-28T10:08:34.736Z,1001
2018-07-28T10:09:36.804Z,1001.1
2018-07-28T10:10:39.152Z,1001
2018-07-28T10:11:41.506Z,1001
2018-07-28T10:12:43.577Z,1001
2018-07-28T10:13:45.923Z,1001
2018-07-28T10:14:48.272Z,1001
2018-07-28T10:15:50.320Z,1001
2018-07-28T10:16:52.390Z,1001
2018-07-28T10:17:54.435Z,1001.1
2018-07-28T10:18:56.773Z,1001
2018-07-28T10:19:58.837Z,1001
2018-07-28T10:21:00.884Z,1001
2018-07-28T10:22:03.247Z,1001
2018-07-28T10:23:05.367Z,1000.9
2018-07-28T10:24:08.421Z,1000.9
2018-07-28T10:25:10.472Z,1001
2018-07-28T10:26:12.540Z,1000.9
2018-07-28T10:27:14.595Z,1001
2018-07-28T10:28:16.647Z,1000.9
2018-07-28T10:29:19.101Z,1000.9
2018-07-28T10:30:21.150Z,1000.9
2018-07-28T10:31:23.209Z,1000.8
2018-07-28T10:32:25.278Z,1000.8
2018-07-28T10:33:27.337Z,1000.8
2018-07-28T10:34:29.393Z,1000.8
2018-07-28T10:35:31.478Z,1000.8
2018-07-28T10:36:33.543Z,1000.7
2018-07-28T10:37:36.083Z,1000.7
2018-07-28T10:38:38.921Z,1000.7
2018-07-28T10:39:41.983Z,1000.7
2018-07-28T10:40:44.047Z,1000.7
2018-07-28T10:41:46.113Z,1000.7
2018-07-28T10:42:48.170Z,1000.6
2018-07-28T10:43:50.226Z,1000.7
2018-07-28T10:44:52.289Z,1000.7
2018-07-28T10:45:54.338Z,1000.6
2018-07-28T10:46:56.711Z,1000.7
2018-07-28T10:47:58.777Z,1000.6
2018-07-28T10:49:00.850Z,1000.7
2018-07-28T10:50:02.910Z,1000.6
2018-07-28T10:51:04.989Z,1000.6
2018-07-28T10:52:07.433Z,1000.6
2018-07-28T10:53:09.484Z,1000.6
2018-07-28T10:54:11.555Z,1000.6
2018-07-28T10:55:13.607Z,1000.6
2018-07-28T10:56:15.966Z,1000.5
2018-07-28T10:57:18.021Z,1000.6
2018-07-28T10:58:20.091Z,1000.6
2018-07-28T10:59:22.427Z,1000.7
2018-07-28T11:00:24.538Z,1000.6
2018-07-28T11:01:26.991Z,1000.7
2018-07-28T11:02:29.039Z,1000.5
2018-07-28T11:03:31.108Z,1000.5
2018-07-28T11:04:33.485Z,1000.6
2018-07-28T11:05:35.549Z,1000.6
2018-07-28T11:06:37.606Z,1000.7
2018-07-28T11:07:39.663Z,1000.5
2018-07-28T11:08:41.730Z,1000.5
2018-07-28T11:09:43.792Z,1000.5
2018-07-28T11:10:45.851Z,1000.6
2018-07-28T11:11:47.922Z,1000.5
2018-07-28T11:12:49.988Z,1000.4
2018-07-28T11:13:52.043Z,1000.7
2018-07-28T11:14:54.115Z,1000.4
2018-07-28T11:15:56.171Z,1000.7
2018-07-28T11:16:58.229Z,1000.6
2018-07-28T11:18:00.293Z,1000.5
2018-07-28T11:19:02.424Z,1000.5
2018-07-28T11:20:04.894Z,1000.5
2018-07-28T11:21:07.338Z,1000.4
2018-07-28T11:22:09.403Z,1000.5
2018-07-28T11:23:11.462Z,1000.4
2018-07-28T11:24:13.528Z,1000.4
2018-07-28T11:25:15.874Z,1000.5
2018-07-28T11:26:18.029Z,1000.4
2018-07-28T11:27:20.480Z,1000.3
2018-07-28T11:28:22.826Z,1000.3
2018-07-28T11:29:24.889Z,1000.3
2018-07-28T11:30:26.940Z,1000.4
2018-07-28T11:31:29.061Z,1000.4
2018-07-28T11:32:31.060Z,1000.3
2018-07-28T11:33:33.127Z,1000.4
2018-07-28T11:34:35.483Z,1000.4
2018-07-28T11:35:37.528Z,1000.3
2018-07-28T11:36:39.601Z,1000.3
2018-07-28T11:37:41.943Z,1000.2
2018-07-28T11:38:44.326Z,1000.3
2018-07-28T11:39:46.400Z,1000.3
2018-07-28T11:40:48.482Z,1000.2
2018-07-28T11:41:50.854Z,1000.1
2018-07-28T11:42:52.927Z,1000.2
2018-07-28T11:43:55.379Z,1000.2
2018-07-28T11:44:57.484Z,1000.4
2018-07-28T11:45:59.684Z,1000.2
2018-07-28T11:47:01.995Z,1000.2
2018-07-28T11:48:04.067Z,1000.3
2018-07-28T11:49:06.500Z,1000.2
2018-07-28T11:50:08.561Z,1000.3
2018-07-28T11:51:10.631Z,1000.2
2018-07-28T11:52:12.963Z,1000.3
2018-07-28T11:53:15.046Z,1000.3
2018-07-28T11:54:17.106Z,1000.2
2018-07-28T11:55:19.172Z,1000.3
2018-07-28T11:56:21.517Z,1000.2
2018-07-28T11:57:23.586Z,1000.3
2018-07-28T11:58:25.844Z,1000.2
2018-07-28T11:59:27.705Z,1000.3
2018-07-28T12:00:29.776Z,1000.3
2018-07-28T12:01:31.827Z,1000.1
2018-07-28T12:02:34.234Z,1000
2018-07-28T12:03:36.680Z,1000
2018-07-28T12:04:38.745Z,1000
2018-07-28T12:05:40.801Z,999.9
2018-07-28T12:06:43.181Z,999.9
2018-07-28T12:07:45.245Z,999.9
2018-07-28T12:08:47.591Z,1000
2018-07-28T12:09:49.660Z,1000
2018-07-28T12:10:51.725Z,1000
2018-07-28T12:11:53.781Z,999.9
2018-07-28T12:12:55.842Z,1000
2018-07-28T12:13:57.916Z,999.9
2018-07-28T12:14:59.973Z,999.9
2018-07-28T12:16:02.040Z,999.8
2018-07-28T12:17:04.490Z,999.9
2018-07-28T12:18:06.880Z,999.9
2018-07-28T12:19:08.896Z,999.9
2018-07-28T12:20:10.949Z,999.8
2018-07-28T12:21:13.018Z,999.8
2018-07-28T12:22:15.361Z,999.8
2018-07-28T12:23:17.413Z,999.9
2018-07-28T12:24:19.480Z,999.8
2018-07-28T12:25:21.528Z,999.7
2018-07-28T12:26:23.595Z,999.7
2018-07-28T12:27:25.654Z,999.7
2018-07-28T12:28:28.017Z,999.7
2018-07-28T12:29:30.071Z,999.8
2018-07-28T12:30:32.136Z,999.7
2018-07-28T12:31:34.198Z,999.7
2018-07-28T12:32:36.254Z,999.7
2018-07-28T12:33:38.324Z,999.7
2018-07-28T12:34:40.859Z,999.7
2018-07-28T12:35:43.812Z,999.7
2018-07-28T12:36:46.159Z,999.6
2018-07-28T12:37:48.621Z,999.6
2018-07-28T12:38:50.675Z,999.6
2018-07-28T12:39:52.737Z,999.8
2018-07-28T12:40:55.164Z,999.7
2018-07-28T12:41:57.201Z,999.7
2018-07-28T12:42:59.274Z,999.7
2018-07-28T12:44:01.331Z,999.7
2018-07-28T12:45:03.677Z,999.7
2018-07-28T12:46:05.740Z,999.7
2018-07-28T12:47:07.805Z,999.6
2018-07-28T12:48:09.869Z,999.6
2018-07-28T12:49:11.937Z,999.5
2018-07-28T12:50:14.002Z,999.5
2018-07-28T12:51:16.052Z,999.5
2018-07-28T12:52:18.116Z,999.5
2018-07-28T12:53:20.180Z,999.6
2018-07-28T12:54:22.236Z,999.5
2018-07-28T12:55:24.388Z,999.5
2018-07-28T12:56:26.374Z,999.5
2018-07-28T12:57:28.427Z,999.4
2018-07-28T12:58:30.500Z,999.5
2018-07-28T12:59:32.559Z,999.5
2018-07-28T13:00:34.632Z,999.4
2018-07-28T13:01:36.717Z,999.5